Time;durP1;ratioP1;P1;durP2;ratioP2;P2;SDS_P1;SDS_P2;PMS_P1;PMS_P2;Temp;Humidity;BMP_temperature;BMP_pressure;BME280_temperature;BME280_humidity;BME280_pressure;Samples;Min_cycle;Max_cycle;Signal;HPM_P1;HPM_P2
2024/01/18 00:01:29;;;;;;;;;42.75;33.50;;;;;3.59;77.20;98630.09;4979122;28;47568;-66
2024/01/18 00:03:55;;;;;;;;;42.00;34.00;;;;;3.56;76.35;98624.06;4979567;28;45415;-66
2024/01/18 00:06:20;;;;;;;;;44.00;35.75;;;;;3.49;75.85;98653.41;4980599;28;45418;-67
2024/01/18 00:08:46;;;;;;;;;42.75;33.25;;;;;3.31;76.14;98649.16;4980441;28;45613;-67
2024/01/18 00:11:12;;;;;;;;;32.00;29.00;;;;;3.35;77.18;98677.63;4979101;28;45469;-68
2024/01/18 00:13:38;;;;;;;;;34.75;31.00;;;;;3.37;77.12;98690.56;4978935;28;45522;-67
2024/01/18 00:16:03;;;;;;;;;40.00;31.00;;;;;3.43;77.64;98690.53;4994863;28;45372;-68
2024/01/18 00:18:29;;;;;;;;;34.50;27.75;;;;;3.44;77.87;98684.50;4978716;28;45529;-66
2024/01/18 00:20:54;;;;;;;;;32.25;26.00;;;;;3.51;77.32;98682.75;4978603;28;45828;-66
2024/01/18 00:23:20;;;;;;;;;31.25;28.25;;;;;3.46;76.83;98669.81;4978895;28;45412;-67
2024/01/18 00:25:45;;;;;;;;;29.50;28.25;;;;;3.56;77.35;98684.47;4994419;28;45419;-67
2024/01/18 00:28:11;;;;;;;;;29.00;27.50;;;;;3.57;76.97;98672.41;4978641;28;45446;-67
2024/01/18 00:30:37;;;;;;;;;37.25;31.00;;;;;3.61;76.64;98674.13;4977438;28;46883;-65
2024/01/18 00:33:04;;;;;;;;;35.75;28.50;;;;;3.58;76.88;98685.34;4978630;28;45450;-65
2024/01/18 00:35:30;;;;;;;;;34.00;29.50;;;;;3.62;77.05;98686.19;4979613;28;45630;-66
2024/01/18 00:37:55;;;;;;;;;33.75;24.75;;;;;3.60;76.89;98670.63;4978635;28;45569;-66
2024/01/18 00:40:21;;;;;;;;;34.00;26.75;;;;;3.67;76.74;98679.25;4978596;28;45984;-65
2024/01/18 00:42:46;;;;;;;;;34.00;28.00;;;;;3.60;77.11;98686.16;4978437;28;45440;-66
2024/01/18 00:45:12;;;;;;;;;36.25;29.75;;;;;3.67;76.60;98688.75;4978115;28;45537;-67
2024/01/18 00:47:38;;;;;;;;;28.25;22.25;;;;;3.65;76.48;98683.56;4979110;28;45419;-67
2024/01/18 00:50:03;;;;;;;;;28.00;24.00;;;;;3.67;76.50;98668.91;4979238;28;46354;-66
2024/01/18 00:52:30;;;;;;;;;32.00;25.25;;;;;3.63;76.89;98676.69;4978082;28;45411;-65
2024/01/18 00:54:55;;;;;;;;;26.75;26.00;;;;;3.64;76.69;98676.69;4978412;28;45364;-66
2024/01/18 00:57:21;;;;;;;;;28.50;23.25;;;;;3.61;77.13;98676.69;4979839;28;45504;-67
2024/01/18 00:59:46;;;;;;;;;27.25;22.25;;;;;3.55;76.42;98671.53;4979722;28;46110;-67
2024/01/18 01:02:12;;;;;;;;;32.00;25.50;;;;;3.42;76.88;98650.00;4977961;28;45420;-65
2024/01/18 01:04:37;;;;;;;;;32.75;24.75;;;;;3.59;76.75;98676.69;4979373;28;45454;-66
2024/01/18 01:07:03;;;;;;;;;27.25;23.00;;;;;3.40;76.32;98636.22;4980362;28;45454;-66
2024/01/18 01:09:29;;;;;;;;;24.25;23.00;;;;;3.61;76.44;98674.13;4994533;28;48044;-66
2024/01/18 01:11:54;;;;;;;;;26.25;21.75;;;;;3.65;76.79;98669.78;4978409;28;45385;-66
2024/01/18 01:14:20;;;;;;;;;25.25;21.25;;;;;3.69;75.85;98663.72;4978518;28;45368;-66
2024/01/18 01:16:46;;;;;;;;;27.00;26.25;;;;;3.71;76.47;98662.84;4975714;28;45412;-66
2024/01/18 01:19:11;;;;;;;;;32.75;23.25;;;;;3.64;75.83;98648.22;4976246;28;46875;-66
2024/01/18 01:21:37;;;;;;;;;31.25;26.00;;;;;3.54;76.20;98625.81;4975720;28;45507;-66
2024/01/18 01:24:03;;;;;;;;;26.75;23.25;;;;;3.69;75.44;98661.13;4978158;28;45557;-66
2024/01/18 01:26:29;;;;;;;;;36.00;30.00;;;;;3.57;74.52;98644.78;4976322;28;46151;-66
2024/01/18 01:28:55;;;;;;;;;29.50;26.75;;;;;3.51;75.03;98652.56;4977570;28;45464;-66
2024/01/18 01:31:20;;;;;;;;;28.00;24.25;;;;;3.32;75.21;98643.13;4978427;28;45391;-67
2024/01/18 01:33:47;;;;;;;;;23.50;22.25;;;;;3.33;75.75;98656.06;4978916;28;45539;-66
2024/01/18 01:36:13;;;;;;;;;29.00;26.75;;;;;3.42;75.64;98662.06;4978297;28;45386;-66
2024/01/18 01:38:39;;;;;;;;;26.00;24.00;;;;;3.39;75.48;98662.94;4976288;28;47709;-66
2024/01/18 01:41:05;;;;;;;;;34.50;25.75;;;;;3.33;75.75;98650.03;4965369;28;45352;-66
2024/01/18 01:43:31;;;;;;;;;39.00;28.50;;;;;3.30;76.17;98648.31;4976252;28;45481;-67
2024/01/18 01:45:57;;;;;;;;;26.25;24.00;;;;;3.45;76.06;98672.44;4978089;28;45371;-64
2024/01/18 01:48:23;;;;;;;;;33.25;27.00;;;;;3.34;75.71;98651.75;4977229;28;45510;-65
2024/01/18 01:50:49;;;;;;;;;30.50;29.00;;;;;3.42;75.01;98657.78;4978347;28;45570;-66
2024/01/18 01:53:18;;;;;;;;;33.00;30.50;;;;;3.47;75.40;98674.16;4978679;28;45572;-66
2024/01/18 01:55:44;;;;;;;;;32.00;29.00;;;;;3.46;75.08;98687.09;4978307;28;45446;-65
2024/01/18 01:58:12;;;;;;;;;28.50;27.75;;;;;3.44;76.19;98694.88;4976927;28;45521;-65
2024/01/18 02:00:38;;;;;;;;;29.25;24.75;;;;;3.52;75.81;98695.69;4977023;28;45344;-66
2024/01/18 02:03:04;;;;;;;;;29.75;27.00;;;;;3.46;75.27;98690.53;4975963;28;45568;-65
2024/01/18 02:05:30;;;;;;;;;29.25;28.50;;;;;3.43;75.74;98681.91;4977264;28;45533;-66
2024/01/18 02:07:55;;;;;;;;;29.75;24.75;;;;;3.50;75.37;98688.81;4977509;28;45506;-66
2024/01/18 02:10:22;;;;;;;;;29.75;24.50;;;;;3.47;74.78;98681.06;4975440;28;45360;-65
2024/01/18 02:12:51;;;;;;;;;32.25;27.25;;;;;3.45;74.65;98680.19;4977265;28;45174;-66
2024/01/18 02:15:17;;;;;;;;;34.00;27.75;;;;;3.48;75.05;98688.78;4971457;28;45450;-66
2024/01/18 02:17:43;;;;;;;;;34.50;28.25;;;;;3.38;75.13;98666.41;4976322;28;46393;-66
2024/01/18 02:20:09;;;;;;;;;38.25;32.50;;;;;3.50;74.38;98686.22;4977110;28;45780;-66
2024/01/18 02:22:41;;;;;;;;;37.25;29.50;;;;;3.47;74.45;98688.81;4976913;28;45567;-65
2024/01/18 02:25:26;;;;;;;;;35.50;24.75;;;;;3.50;75.24;98707.78;4976881;28;45632;-65
2024/01/18 02:27:55;;;;;;;;;37.00;31.25;;;;;3.42;74.65;98706.94;4976624;28;45507;-65
2024/01/18 02:30:21;;;;;;;;;30.50;29.50;;;;;3.50;74.75;98709.50;4978092;28;45427;-66
2024/01/18 02:32:47;;;;;;;;;30.25;22.50;;;;;3.51;74.72;98706.94;4977253;28;45342;-67
2024/01/18 02:35:13;;;;;;;;;32.25;27.75;;;;;3.50;74.06;98725.91;4975714;28;45487;-67
2024/01/18 02:37:39;;;;;;;;;31.25;27.75;;;;;3.47;74.78;98718.16;4976533;28;46715;-66
2024/01/18 02:40:06;;;;;;;;;37.75;28.50;;;;;3.50;75.35;98728.47;4978119;28;45432;-65
2024/01/18 02:42:33;;;;;;;;;29.25;25.50;;;;;3.47;74.69;98714.69;4973020;28;45556;-67
2024/01/18 02:44:59;;;;;;;;;32.25;24.50;;;;;3.47;74.20;98718.16;4987980;28;45443;-66
2024/01/18 02:47:28;;;;;;;;;34.25;27.25;;;;;3.46;74.36;98713.81;4975641;28;46013;-67
2024/01/18 02:49:55;;;;;;;;;38.75;26.75;;;;;3.45;74.16;98709.50;4963899;28;45778;-66
2024/01/18 02:52:21;;;;;;;;;29.50;28.00;;;;;3.45;74.65;98716.44;4971075;28;45329;-66
2024/01/18 02:54:47;;;;;;;;;39.50;24.50;;;;;3.38;73.98;98721.59;4976911;28;45463;-65
2024/01/18 02:57:14;;;;;;;;;38.00;30.50;;;;;3.33;73.45;98715.56;4975362;28;46204;-67
2024/01/18 02:59:40;;;;;;;;;30.25;28.25;;;;;3.38;74.48;98724.19;4976343;28;45572;-66
2024/01/18 03:02:06;;;;;;;;;32.75;30.00;;;;;3.33;73.84;98719.91;4969457;28;45499;-66
2024/01/18 03:04:31;;;;;;;;;32.75;27.00;;;;;3.30;74.27;98731.09;4968736;28;45480;-65
2024/01/18 03:06:57;;;;;;;;;28.25;23.75;;;;;3.29;74.35;98731.97;4976337;28;46002;-65
2024/01/18 03:09:23;;;;;;;;;26.75;24.00;;;;;3.24;74.50;98723.34;4976672;28;45668;-65
2024/01/18 03:11:49;;;;;;;;;27.50;25.25;;;;;3.29;74.32;98737.13;4977794;28;45377;-67
2024/01/18 03:14:15;;;;;;;;;33.00;27.75;;;;;3.22;73.77;98738.00;4992372;28;45333;-65
2024/01/18 03:16:42;;;;;;;;;23.00;21.25;;;;;3.18;74.60;98744.06;4957071;28;47854;-66
2024/01/18 03:19:12;;;;;;;;;26.25;21.50;;;;;3.17;74.58;98752.66;4969618;28;45709;-66
2024/01/18 03:21:39;;;;;;;;;21.25;21.00;;;;;3.15;74.07;98749.22;4974134;28;45687;-66
2024/01/18 03:24:06;;;;;;;;;29.50;24.50;;;;;3.19;74.08;98758.72;4973472;28;45444;-66
2024/01/18 03:26:32;;;;;;;;;24.00;20.00;;;;;3.16;74.72;98758.72;4976023;28;45930;-65
2024/01/18 03:28:58;;;;;;;;;23.50;21.00;;;;;3.16;74.16;98754.41;4976457;28;45457;-66
2024/01/18 03:31:24;;;;;;;;;22.50;20.25;;;;;3.07;74.52;98751.81;4976416;28;45494;-65
2024/01/18 03:33:50;;;;;;;;;22.25;16.75;;;;;3.18;75.47;98775.09;4977937;28;45647;-66
2024/01/18 03:36:17;;;;;;;;;18.50;18.00;;;;;3.18;74.64;98767.34;4976070;28;45450;-65
2024/01/18 03:38:42;;;;;;;;;22.75;18.75;;;;;3.25;74.43;98782.00;4976974;28;45609;-65
2024/01/18 03:41:08;;;;;;;;;23.50;17.75;;;;;3.21;74.98;98782.84;4976328;28;45967;-66
2024/01/18 03:43:34;;;;;;;;;18.00;15.75;;;;;3.13;74.51;98779.38;4974930;28;45229;-65
2024/01/18 03:45:59;;;;;;;;;22.00;19.25;;;;;3.22;74.83;98801.81;4976207;28;45715;-66
2024/01/18 03:48:25;;;;;;;;;28.25;18.75;;;;;3.14;75.28;98779.41;4976158;28;45430;-67
2024/01/18 03:50:50;;;;;;;;;14.00;12.50;;;;;3.22;75.35;98800.09;4976095;28;45391;-66
2024/01/18 03:53:16;;;;;;;;;22.75;16.75;;;;;3.17;75.26;98801.81;4976501;28;45363;-65
2024/01/18 03:55:42;;;;;;;;;21.25;15.75;;;;;3.23;74.98;98808.72;4974666;28;47630;-65
2024/01/18 03:58:08;;;;;;;;;17.00;16.50;;;;;3.14;74.23;98805.25;4976041;28;45476;-66
2024/01/18 04:00:33;;;;;;;;;18.25;13.25;;;;;3.20;74.83;98819.91;4975829;28;45502;-66
2024/01/18 04:02:59;;;;;;;;;17.50;15.50;;;;;3.11;75.25;98802.69;4976118;28;45513;-65
2024/01/18 04:05:24;;;;;;;;;18.00;15.75;;;;;3.19;75.02;98819.06;4990474;28;45815;-67
2024/01/18 04:07:52;;;;;;;;;17.00;15.50;;;;;3.06;74.37;98808.69;4975579;28;45337;-66
2024/01/18 04:10:17;;;;;;;;;21.25;15.00;;;;;3.09;74.08;98808.72;4977162;28;45425;-65
2024/01/18 04:12:43;;;;;;;;;12.25;12.00;;;;;2.86;74.19;98786.25;4979782;28;45573;-65
2024/01/18 04:15:09;;;;;;;;;20.25;15.75;;;;;2.96;74.69;98813.00;4980233;28;45474;-65
2024/01/18 04:17:35;;;;;;;;;19.00;17.75;;;;;3.01;73.91;98821.63;4979171;28;45459;-65
2024/01/18 04:20:05;;;;;;;;;19.25;15.00;;;;;3.00;75.08;98830.25;4979787;28;45451;-66
2024/01/18 04:22:33;;;;;;;;;16.25;13.25;;;;;3.01;74.05;98839.72;4995707;28;45570;-66
2024/01/18 04:24:58;;;;;;;;;15.00;14.00;;;;;2.92;74.23;98831.97;4979124;28;46279;-66
2024/01/18 04:27:24;;;;;;;;;13.75;13.75;;;;;2.96;73.75;98852.63;4980319;28;45536;-66
2024/01/18 04:29:49;;;;;;;;;11.50;11.50;;;;;3.00;73.87;98860.44;4978965;28;45347;-66
2024/01/18 04:32:15;;;;;;;;;14.00;10.00;;;;;3.01;73.64;98878.50;4979191;28;45157;-65
2024/01/18 04:34:42;;;;;;;;;15.50;14.50;;;;;2.96;74.04;98886.25;4977736;28;47217;-65
2024/01/18 04:37:08;;;;;;;;;15.00;13.00;;;;;2.92;73.54;98888.88;4979872;28;45379;-65
2024/01/18 04:39:33;;;;;;;;;14.00;13.50;;;;;2.86;73.59;98900.03;4980392;28;45490;-66
2024/01/18 04:41:59;;;;;;;;;14.00;12.00;;;;;2.79;72.95;98890.53;4980467;28;45402;-65
2024/01/18 04:44:24;;;;;;;;;16.25;14.25;;;;;2.87;73.52;98913.81;4978957;28;46292;-65
2024/01/18 04:46:50;;;;;;;;;16.50;14.00;;;;;2.81;73.30;98906.06;4978590;28;45432;-66
2024/01/18 04:49:15;;;;;;;;;13.75;12.00;;;;;2.81;73.72;98914.66;4971692;28;45340;-66
2024/01/18 04:51:41;;;;;;;;;11.25;11.25;;;;;2.85;73.47;98928.47;4990934;28;45969;-66
2024/01/18 04:54:06;;;;;;;;;13.50;12.25;;;;;2.83;73.64;98931.06;4977868;28;45803;-65
2024/01/18 04:56:35;;;;;;;;;18.50;15.50;;;;;2.83;73.62;98940.53;4979796;28;45426;-66
2024/01/18 04:59:01;;;;;;;;;23.00;19.50;;;;;2.85;73.36;98957.78;4978879;28;45312;-65
2024/01/18 05:01:26;;;;;;;;;23.50;20.25;;;;;2.69;72.86;98943.06;4979691;28;45371;-67
2024/01/18 05:03:52;;;;;;;;;25.25;17.25;;;;;2.67;73.59;98955.09;4978724;28;45958;-66
2024/01/18 05:06:18;;;;;;;;;21.00;18.25;;;;;2.67;73.75;98973.19;4969541;28;45358;-66
2024/01/18 05:08:45;;;;;;;;;25.75;20.00;;;;;2.71;73.21;98991.31;4978576;28;45483;-65
2024/01/18 05:11:10;;;;;;;;;25.50;20.75;;;;;2.72;74.19;98987.00;4978620;28;45431;-66
2024/01/18 05:13:36;;;;;;;;;26.75;22.25;;;;;2.74;73.13;98993.91;4978363;28;45657;-65
2024/01/18 05:16:02;;;;;;;;;24.75;23.25;;;;;2.64;72.91;98988.69;4978153;28;45405;-66
2024/01/18 05:18:28;;;;;;;;;33.75;21.75;;;;;2.59;72.66;98995.53;4978212;28;45433;-65
2024/01/18 05:20:54;;;;;;;;;30.00;25.00;;;;;2.68;72.84;99024.03;4992164;28;45232;-66
2024/01/18 05:23:19;;;;;;;;;23.25;22.75;;;;;2.59;72.76;99009.34;4977505;28;46522;-66
2024/01/18 05:25:45;;;;;;;;;27.00;23.50;;;;;2.57;72.33;99029.16;4978141;28;45390;-65
2024/01/18 05:28:11;;;;;;;;;26.25;25.25;;;;;2.52;72.94;99018.78;4978451;28;45231;-65
2024/01/18 05:30:37;;;;;;;;;28.75;27.25;;;;;2.63;71.87;99038.66;4979006;28;45521;-66
2024/01/18 05:33:04;;;;;;;;;28.75;25.75;;;;;2.66;73.02;99051.63;4978527;28;45358;-65
2024/01/18 05:35:29;;;;;;;;;30.00;28.00;;;;;2.61;72.15;99049.00;4976609;28;46210;-66
2024/01/18 05:37:55;;;;;;;;;35.00;30.00;;;;;2.57;71.89;99030.88;4976948;28;45323;-66
2024/01/18 05:40:22;;;;;;;;;42.00;30.25;;;;;2.61;72.32;99051.59;4979593;28;45701;-67
2024/01/18 05:42:48;;;;;;;;;41.50;31.25;;;;;2.63;72.01;99067.09;4989656;28;47273;-66
2024/01/18 05:45:13;;;;;;;;;47.00;35.00;;;;;2.52;71.97;99052.38;4977737;28;45590;-66
2024/01/18 05:47:39;;;;;;;;;39.25;33.25;;;;;2.59;71.96;99070.50;4977553;28;45720;-65
2024/01/18 05:50:06;;;;;;;;;43.50;33.00;;;;;2.55;72.65;99085.97;4976520;28;45479;-65
2024/01/18 05:52:31;;;;;;;;;39.25;33.25;;;;;2.59;72.09;99096.34;4977647;28;45416;-66
2024/01/18 05:54:58;;;;;;;;;46.50;35.75;;;;;2.58;72.46;99092.03;4977272;28;45566;-65
2024/01/18 05:57:24;;;;;;;;;47.25;37.75;;;;;2.52;72.49;99092.88;4992686;28;45462;-65
2024/01/18 05:59:50;;;;;;;;;35.50;33.25;;;;;2.61;72.88;99105.88;4977781;28;45467;-65
2024/01/18 06:02:15;;;;;;;;;49.00;37.50;;;;;2.58;72.24;99107.53;4977156;28;46063;-66
2024/01/18 06:04:41;;;;;;;;;47.50;36.25;;;;;2.64;72.75;99130.88;4975946;28;45356;-66
2024/01/18 06:07:06;;;;;;;;;55.50;37.50;;;;;2.60;72.26;99123.94;4992613;28;45205;-66
2024/01/18 06:09:32;;;;;;;;;52.50;42.00;;;;;2.66;72.09;99134.34;4977457;28;45258;-66
2024/01/18 06:11:57;;;;;;;;;50.75;40.00;;;;;2.61;72.45;99128.25;4977472;28;45978;-66
2024/01/18 06:14:23;;;;;;;;;50.00;40.33;;;;;2.70;72.34;99138.66;4977475;28;45428;-65
2024/01/18 06:16:48;;;;;;;;;46.75;37.25;;;;;2.68;71.50;99138.66;4992406;28;45391;-66
2024/01/18 06:19:14;;;;;;;;;43.75;34.00;;;;;2.68;71.58;99146.41;4977567;28;45371;-66
2024/01/18 06:21:41;;;;;;;;;50.25;38.75;;;;;2.71;72.41;99151.59;4977334;28;45985;-65
2024/01/18 06:24:07;;;;;;;;;55.75;40.25;;;;;2.64;72.04;99141.22;4977678;28;45564;-66
2024/01/18 06:26:33;;;;;;;;;36.00;33.50;;;;;2.76;72.55;99173.19;4977179;28;45541;-65
2024/01/18 06:28:59;;;;;;;;;50.00;36.25;;;;;2.72;72.43;99184.34;4992544;28;45488;-66
2024/01/18 06:31:27;;;;;;;;;49.00;38.00;;;;;2.55;72.53;99150.59;4976759;28;45709;-66
2024/01/18 06:33:53;;;;;;;;;49.25;36.75;;;;;2.73;72.30;99183.50;4976239;28;45928;-66
2024/01/18 06:36:19;;;;;;;;;52.50;37.00;;;;;2.68;72.58;99195.53;4975528;28;45317;-66
2024/01/18 06:38:45;;;;;;;;;52.25;40.50;;;;;2.73;72.22;99216.25;4975774;28;45274;-66
2024/01/18 06:41:11;;;;;;;;;55.25;39.50;;;;;2.76;71.81;99224.03;4978119;28;46263;-68
2024/01/18 06:43:37;;;;;;;;;46.75;35.00;;;;;2.65;72.58;99207.56;4976552;28;45359;-66
2024/01/18 06:46:03;;;;;;;;;53.00;41.50;;;;;2.70;72.04;99231.72;4976461;28;45373;-67
2024/01/18 06:48:28;;;;;;;;;51.00;39.00;;;;;2.70;72.25;99245.50;4977156;28;45411;-66
2024/01/18 06:50:54;;;;;;;;;50.25;37.50;;;;;2.68;71.85;99259.28;4978476;28;46303;-65
2024/01/18 06:53:20;;;;;;;;;55.50;41.50;;;;;2.75;71.93;99274.88;4976897;28;45475;-64
2024/01/18 06:55:45;;;;;;;;;52.25;41.00;;;;;2.76;72.23;99288.69;4975815;28;45339;-65
2024/01/18 06:58:11;;;;;;;;;54.00;44.25;;;;;2.72;71.85;99286.91;4976008;28;45541;-66
2024/01/18 07:00:37;;;;;;;;;49.25;37.50;;;;;2.74;72.32;99292.97;4977020;28;45588;-66
2024/01/18 07:03:02;;;;;;;;;54.75;41.25;;;;;2.64;72.54;99283.38;4976874;28;45484;-66
2024/01/18 07:05:28;;;;;;;;;49.50;38.00;;;;;2.70;72.81;99299.81;4975262;28;45392;-66
2024/01/18 07:07:54;;;;;;;;;54.50;40.75;;;;;2.68;72.66;99313.56;4977004;28;45515;-64
2024/01/18 07:10:20;;;;;;;;;53.00;42.75;;;;;2.62;72.38;99300.59;4977031;28;45339;-66
2024/01/18 07:12:46;;;;;;;;;51.33;40.67;;;;;2.65;73.11;99314.41;4975423;28;45410;-65
2024/01/18 07:15:14;;;;;;;;;51.25;41.00;;;;;2.68;72.76;99311.88;4975249;28;45463;-67
2024/01/18 07:17:39;;;;;;;;;48.00;37.50;;;;;2.68;73.00;99324.78;4977381;28;45455;-66
2024/01/18 07:20:06;;;;;;;;;56.00;44.00;;;;;2.76;72.14;99332.63;4974991;28;47580;-65
2024/01/18 07:22:32;;;;;;;;;51.25;40.00;;;;;2.75;72.15;99356.72;4976093;28;45423;-66
2024/01/18 07:24:58;;;;;;;;;55.50;41.50;;;;;2.76;71.88;99359.34;4976702;28;45478;-66
2024/01/18 07:27:23;;;;;;;;;56.00;43.33;;;;;2.73;71.85;99361.06;4976804;28;45567;-65
2024/01/18 07:29:49;;;;;;;;;54.75;42.50;;;;;2.76;72.11;99380.03;4975835;28;46289;-65
2024/01/18 07:32:19;;;;;;;;;56.67;43.67;;;;;2.70;71.71;99381.66;4974576;28;45293;-65
2024/01/18 07:34:45;;;;;;;;;55.50;42.25;;;;;2.76;71.73;99394.69;4976110;28;45491;-66
2024/01/18 07:37:14;;;;;;;;;55.00;44.67;;;;;2.76;72.06;99397.28;4977015;28;45961;-67
2024/01/18 07:39:40;;;;;;;;;58.67;44.33;;;;;2.65;71.29;99380.75;4991640;28;45490;-66
2024/01/18 07:42:09;;;;;;;;;50.67;40.00;;;;;2.68;71.90;99391.13;4976494;28;45416;-67
2024/01/18 07:44:35;;;;;;;;;61.00;43.00;;;;;2.68;71.89;99396.28;4975290;28;45419;-65
2024/01/18 07:47:01;;;;;;;;;56.25;41.50;;;;;2.70;71.52;99412.69;4976056;28;45899;-65
2024/01/18 07:49:27;;;;;;;;;51.25;38.75;;;;;2.70;72.21;99410.97;4979312;28;45570;-66
2024/01/18 07:51:53;;;;;;;;;53.67;43.33;;;;;2.80;71.78;99435.25;4979363;28;45680;-65
2024/01/18 07:54:19;;;;;;;;;53.00;42.00;;;;;2.62;71.61;99407.44;4979561;28;45443;-66
2024/01/18 07:56:45;;;;;;;;;55.00;43.00;;;;;2.69;71.63;99429.06;4980167;28;45470;-67
2024/01/18 07:59:11;;;;;;;;;61.00;46.00;;;;;2.74;71.24;99435.16;4977747;28;47722;-66
2024/01/18 08:01:36;;;;;;;;;61.33;45.00;;;;;2.89;72.39;99468.09;4979325;28;45399;-66
2024/01/18 08:04:02;;;;;;;;;55.25;44.75;;;;;2.82;71.66;99449.03;4994462;28;45498;-65
2024/01/18 08:06:28;;;;;;;;;55.00;43.33;;;;;2.97;70.88;99477.69;4980011;28;45517;-64
2024/01/18 08:08:55;;;;;;;;;59.33;45.00;;;;;2.92;71.28;99473.34;4979054;28;45537;-64
2024/01/18 08:11:20;;;;;;;;;59.33;45.00;;;;;3.00;71.08;99494.09;4978559;28;45392;-65
2024/01/18 08:13:46;;;;;;;;;60.67;47.33;;;;;3.04;70.93;99486.41;4980641;28;45396;-66
2024/01/18 08:16:11;;;;;;;;;65.00;48.33;;;;;3.05;70.52;99495.03;4980879;28;45426;-66
2024/01/18 08:18:37;;;;;;;;;55.33;41.67;;;;;3.03;71.13;99494.13;4978735;28;47288;-64
2024/01/18 08:21:03;;;;;;;;;54.67;43.33;;;;;3.09;70.82;99514.94;4980348;28;45371;-65
2024/01/18 08:23:29;;;;;;;;;53.67;44.33;;;;;3.11;70.64;99511.50;4980393;28;45491;-65
2024/01/18 08:25:55;;;;;;;;;61.33;47.00;;;;;3.04;70.68;99511.38;4980797;28;45497;-65
2024/01/18 08:28:21;;;;;;;;;62.33;45.33;;;;;3.16;70.10;99540.03;4980616;28;45450;-65
2024/01/18 08:30:47;;;;;;;;;61.00;47.33;;;;;3.26;70.90;99547.03;4978353;28;46040;-65
2024/01/18 08:33:14;;;;;;;;;56.00;45.33;;;;;3.52;69.97;99556.84;4978950;28;45535;-65
2024/01/18 08:35:40;;;;;;;;;71.67;52.33;;;;;3.92;68.04;99549.50;4965490;28;46309;-64
2024/01/18 08:39:38;;;;;;;;;56.75;43.75;;;;;4.89;67.28;99562.38;5100543;27;45392;-65
2024/01/18 08:42:04;;;;;;;;;58.00;45.25;;;;;5.56;65.45;99573.09;5077680;27;45667;-65
2024/01/18 08:44:30;;;;;;;;;57.50;44.50;;;;;6.30;63.27;99559.41;5081411;27;45434;-65
2024/01/18 08:46:55;;;;;;;;;57.50;45.00;;;;;7.33;61.47;99576.59;5076494;27;45751;-65
2024/01/18 08:49:24;;;;;;;;;59.00;45.75;;;;;7.80;59.48;99584.22;5076277;27;45310;-66
2024/01/18 08:51:51;;;;;;;;;59.00;45.75;;;;;7.84;58.25;99587.69;5074232;27;45429;-66
2024/01/18 08:54:16;;;;;;;;;59.50;44.00;;;;;8.16;57.94;99616.19;5092263;27;45404;-66
2024/01/18 08:56:42;;;;;;;;;56.50;44.75;;;;;9.08;56.83;99610.25;5090030;27;45456;-66
2024/01/18 08:59:07;;;;;;;;;57.00;43.00;;;;;10.35;54.20;99627.91;5094026;27;45543;-66
2024/01/18 09:01:33;;;;;;;;;59.50;44.75;;;;;11.36;49.93;99631.44;5091985;27;45518;-64
2024/01/18 09:03:58;;;;;;;;;55.25;43.00;;;;;12.48;48.71;99646.63;5093898;27;45171;-65
2024/01/18 09:06:24;;;;;;;;;53.25;42.25;;;;;13.42;47.07;99647.78;5110845;27;45499;-65
2024/01/18 09:08:49;;;;;;;;;53.50;44.50;;;;;14.23;44.84;99618.25;5092673;27;47734;-65
2024/01/18 09:11:15;;;;;;;;;48.00;39.75;;;;;15.22;43.68;99651.09;5093024;27;45322;-65
2024/01/18 09:13:41;;;;;;;;;49.00;40.00;;;;;15.98;41.90;99656.34;5092902;27;45495;-65
2024/01/18 09:16:07;;;;;;;;;45.50;37.25;;;;;16.36;40.97;99646.97;5092529;27;45495;-65
2024/01/18 09:18:33;;;;;;;;;45.50;37.50;;;;;16.99;39.47;99667.38;5092413;27;46685;-65
2024/01/18 09:21:00;;;;;;;;;54.00;38.75;;;;;17.64;38.48;99676.97;5090944;27;45803;-64
2024/01/18 09:23:26;;;;;;;;;49.25;39.00;;;;;18.50;36.62;99675.69;5093068;27;45415;-66
2024/01/18 09:25:51;;;;;;;;;50.50;39.75;;;;;19.41;35.05;99682.75;5093130;27;45564;-65
2024/01/18 09:28:17;;;;;;;;;47.50;37.75;;;;;19.43;33.50;99688.84;5091305;27;45590;-66
2024/01/18 09:30:43;;;;;;;;;47.75;35.25;;;;;19.20;33.96;99691.81;5112677;27;45443;-65
2024/01/18 09:33:09;;;;;;;;;47.25;38.25;;;;;19.42;33.21;99700.41;5090512;27;45349;-65
2024/01/18 09:35:36;;;;;;;;;51.75;38.25;;;;;19.80;32.37;99710.00;5093162;27;45412;-66
2024/01/18 09:38:03;;;;;;;;;52.00;38.25;;;;;20.26;31.70;99695.13;5092513;27;46148;-65
2024/01/18 09:40:28;;;;;;;;;47.75;36.25;;;;;20.46;30.65;99696.69;5092627;27;45337;-65
2024/01/18 09:42:56;;;;;;;;;43.25;36.00;;;;;20.62;30.55;99723.31;5078265;27;45483;-63
2024/01/18 09:45:26;;;;;;;;;48.25;39.75;;;;;20.32;30.54;99720.50;5093039;27;45451;-64
2024/01/18 09:47:53;;;;;;;;;47.50;38.00;;;;;20.20;30.94;99731.81;5092197;27;45222;-67
2024/01/18 09:50:20;;;;;;;;;46.50;37.25;;;;;18.91;31.99;99738.34;5080640;27;45450;-66
2024/01/18 09:52:46;;;;;;;;;48.75;38.00;;;;;17.62;32.16;99758.25;5067288;28;45456;-65
2024/01/18 09:55:11;;;;;;;;;53.50;42.00;;;;;16.37;34.15;99757.00;5061197;28;45531;-65
2024/01/18 09:57:43;;;;;;;;;50.25;38.75;;;;;15.71;35.43;99777.91;5079778;28;45606;-63
2024/01/18 10:00:15;;;;;;;;;48.50;40.00;;;;;15.36;35.74;99784.31;5094665;27;45431;-64
2024/01/18 10:02:40;;;;;;;;;49.00;40.75;;;;;17.03;34.71;99790.66;5094558;27;45372;-64
2024/01/18 10:05:09;;;;;;;;;47.00;37.50;;;;;18.22;33.45;99776.84;5065635;27;45523;-64
2024/01/18 10:07:35;;;;;;;;;50.25;38.75;;;;;19.36;32.27;99812.25;5079822;27;45369;-64
2024/01/18 10:10:01;;;;;;;;;48.50;37.25;;;;;20.51;31.15;99813.47;5078328;27;45723;-64
2024/01/18 10:12:32;;;;;;;;;49.50;42.75;;;;;21.57;28.96;99799.63;5094434;27;45622;-64
2024/01/18 10:14:58;;;;;;;;;51.75;40.00;;;;;22.21;27.81;99826.94;5078474;27;45473;-65
2024/01/18 10:17:25;;;;;;;;;19.50;15.00;;;;;23.34;27.04;99826.94;5064946;28;45390;-64
2024/01/18 10:20:00;;;;;;;;;43.67;36.67;;;;;24.20;26.45;99821.19;5078219;27;45501;-65
2024/01/18 10:22:28;;;;;;;;;46.33;36.67;;;;;25.58;25.08;99843.47;5066041;28;45371;-64
2024/01/18 10:24:55;;;;;;;;;43.00;36.67;;;;;26.60;23.84;99849.16;5077455;28;45515;-64
2024/01/18 10:27:22;;;;;;;;;46.33;37.00;;;;;27.29;23.28;99851.72;5078706;27;46242;-65
2024/01/18 10:29:50;;;;;;;;;41.00;34.00;;;;;27.13;22.90;99840.47;5077701;27;45358;-65
2024/01/18 10:32:16;;;;;;;;;44.00;36.00;;;;;27.67;22.49;99863.84;5079939;27;45380;-64
2024/01/18 10:34:42;;;;;;;;;44.33;36.00;;;;;28.29;22.33;99864.91;5095942;27;45514;-65
2024/01/18 10:37:15;;;;;;;;;37.67;34.00;;;;;29.13;21.84;99862.06;5094356;27;45451;-65
2024/01/18 10:39:41;;;;;;;;;34.33;32.33;;;;;30.04;20.52;99865.50;5077923;27;45460;-65
2024/01/18 10:42:12;;;;;;;;;37.00;32.67;;;;;30.28;20.75;99878.56;5078236;27;45393;-64
2024/01/18 10:44:40;;;;;;;;;42.33;35.00;;;;;30.40;19.55;99868.44;5078357;27;45447;-64
2024/01/18 10:47:15;;;;;;;;;37.33;31.00;;;;;30.52;19.91;99878.06;5077821;27;46189;-65
2024/01/18 10:49:43;;;;;;;;;35.33;32.67;;;;;30.83;19.66;99867.03;5077904;27;45487;-64
2024/01/18 10:52:11;;;;;;;;;34.00;32.33;;;;;31.24;19.63;99883.78;5064857;27;45391;-65
2024/01/18 10:54:37;;;;;;;;;43.33;34.00;;;;;31.76;18.89;99888.59;5078642;27;45376;-64
2024/01/18 10:57:03;;;;;;;;;36.67;32.00;;;;;31.90;18.14;99891.59;5077792;27;45357;-65
2024/01/18 10:59:30;;;;;;;;;39.50;33.00;;;;;31.52;19.00;99898.16;5079280;27;45757;-65
2024/01/18 11:01:59;;;;;;;;;36.67;32.33;;;;;30.99;18.52;99906.94;5078034;27;45483;-65
2024/01/18 11:04:33;;;;;;;;;38.00;33.00;;;;;31.17;18.71;99905.16;5077247;28;45369;-65
2024/01/18 11:06:59;;;;;;;;;42.00;32.67;;;;;31.63;18.22;99916.91;5096755;27;45998;-64
2024/01/18 11:09:27;;;;;;;;;31.67;29.67;;;;;31.63;18.00;99921.44;5078014;28;45447;-65
2024/01/18 11:11:53;;;;;;;;;36.00;32.33;;;;;31.82;17.70;99915.03;5078263;27;45417;-65
2024/01/18 11:14:20;;;;;;;;;29.67;27.00;;;;;31.58;17.56;99938.13;5077857;27;45294;-65
2024/01/18 11:16:45;;;;;;;;;35.33;30.00;;;;;31.20;18.28;99936.47;5077517;28;45425;-64
2024/01/18 11:19:11;;;;;;;;;32.67;30.67;;;;;30.60;18.18;99950.31;5075943;27;45595;-65
2024/01/18 11:21:42;;;;;;;;;31.33;29.67;;;;;30.32;18.24;99923.16;5077777;27;45489;-65